createdAt,value
2019-02-11T00:01:18.891Z,6.80
2019-02-11T00:12:16.231Z,6.52
2019-02-11T00:23:15.795Z,6.36
2019-02-11T00:34:11.158Z,6.36
2019-02-11T00:45:12.720Z,6.13
2019-02-11T00:56:07.289Z,6.41
2019-02-11T01:07:05.475Z,6.41
2019-02-11T01:17:55.816Z,6.45
2019-02-11T01:28:54.756Z,6.37
2019-02-11T01:39:51.532Z,5.81
2019-02-11T01:50:54.241Z,6.26
2019-02-11T02:01:49.976Z,5.47
2019-02-11T02:12:46.889Z,5.28
2019-02-11T02:23:44.029Z,5.53
2019-02-11T02:34:26.644Z,5.57
2019-02-11T02:45:08.640Z,5.62
2019-02-11T02:56:00.864Z,5.41
2019-02-11T03:07:02.046Z,5.18
2019-02-11T03:18:01.820Z,5.00
2019-02-11T03:28:57.870Z,4.74
2019-02-11T03:40:00.459Z,4.76
2019-02-11T03:51:02.737Z,4.65
2019-02-11T04:02:07.339Z,4.43
2019-02-11T04:12:43.189Z,4.41
2019-02-11T04:23:40.041Z,4.40
2019-02-11T04:34:37.457Z,4.52
2019-02-11T04:45:35.372Z,4.22
2019-02-11T04:56:38.186Z,4.20
2019-02-11T05:07:41.415Z,4.12
2019-02-11T05:18:39.829Z,4.04
2019-02-11T05:29:40.638Z,3.68
2019-02-11T05:40:40.744Z,3.80
2019-02-11T05:51:43.778Z,3.59
2019-02-11T06:02:36.085Z,3.56
2019-02-11T06:13:37.708Z,3.59
2019-02-11T06:24:40.078Z,3.53
2019-02-11T06:35:42.949Z,3.47
2019-02-11T06:46:42.366Z,3.39
2019-02-11T06:57:38.773Z,3.41
2019-02-11T07:08:34.868Z,3.56
2019-02-11T07:19:36.998Z,3.64
2019-02-11T07:30:40.647Z,3.79
2019-02-11T07:41:43.008Z,3.90
2019-02-11T07:52:42.873Z,4.11
2019-02-11T08:03:46.729Z,4.11
2019-02-11T08:14:50.877Z,4.50
2019-02-11T08:25:55.550Z,4.77
2019-02-11T08:36:56.630Z,5.20
2019-02-11T08:47:33.165Z,5.52
2019-02-11T08:58:35.354Z,5.56
2019-02-11T09:09:38.531Z,5.81
2019-02-11T09:20:38.678Z,6.14
2019-02-11T09:31:24.495Z,6.37
2019-02-11T09:42:17.708Z,6.98
2019-02-11T09:53:05.412Z,7.37
2019-02-11T10:03:52.006Z,7.83
2019-02-11T10:14:50.116Z,8.27
2019-02-11T10:25:39.333Z,8.50
2019-02-11T10:36:24.367Z,9.06
2019-02-11T10:47:10.250Z,9.22
2019-02-11T10:57:56.709Z,9.31
2019-02-11T11:08:44.150Z,9.70
2019-02-11T11:19:37.813Z,9.64
2019-02-11T11:30:38.246Z,11.35
2019-02-11T11:41:28.391Z,10.31
2019-02-11T11:52:19.514Z,9.64
2019-02-11T12:03:16.928Z,10.39
2019-02-11T12:14:09.434Z,9.85
2019-02-11T12:24:49.505Z,9.89
2019-02-11T12:35:38.548Z,9.68
2019-02-11T12:46:33.532Z,10.19
2019-02-11T12:57:30.235Z,11.47
2019-02-11T13:08:24.758Z,10.37
2019-02-11T13:19:20.162Z,10.21
2019-02-11T13:30:13.058Z,11.05
2019-02-11T13:41:04.256Z,10.21
2019-02-11T13:51:51.810Z,10.31
2019-02-11T14:02:42.019Z,9.53
2019-02-11T14:13:30.503Z,8.75
2019-02-11T14:24:16.189Z,8.36
2019-02-11T14:35:11.261Z,8.18
2019-02-11T14:45:58.478Z,7.97
2019-02-11T14:56:48.640Z,7.85
2019-02-11T15:07:20.867Z,7.85
2019-02-11T15:18:08.743Z,7.94
2019-02-11T15:29:09.647Z,7.76
2019-02-11T15:40:08.818Z,7.81
2019-02-11T15:51:04.366Z,7.67
2019-02-11T16:01:47.548Z,7.49
2019-02-11T16:12:47.849Z,7.70
2019-02-11T16:23:48.545Z,7.49
2019-02-11T16:34:48.861Z,7.24
2019-02-11T16:45:43.104Z,7.23
2019-02-11T16:56:42.049Z,7.02
2019-02-11T17:07:41.900Z,7.02
2019-02-11T17:18:53.208Z,6.96
2019-02-11T17:29:55.675Z,6.91
2019-02-11T17:40:54.218Z,6.87
2019-02-11T17:51:50.675Z,6.54
2019-02-11T18:02:48.906Z,6.60
2019-02-11T18:13:43.328Z,6.52
2019-02-11T18:24:39.618Z,6.63
2019-02-11T18:35:28.927Z,6.60
2019-02-11T18:46:10.838Z,7.11
2019-02-11T18:57:09.285Z,7.06
2019-02-11T19:08:08.316Z,6.91
2019-02-11T19:19:05.716Z,6.96
2019-02-11T19:30:04.108Z,6.98
2019-02-11T19:41:06.179Z,6.80
2019-02-11T19:52:03.124Z,6.86
2019-02-11T20:03:01.685Z,6.88
2019-02-11T20:13:56.988Z,6.94
2019-02-11T20:24:54.115Z,6.90
2019-02-11T20:35:51.258Z,7.06
2019-02-11T20:46:51.402Z,7.02
2019-02-11T20:57:51.887Z,6.93
2019-02-11T21:08:51.306Z,6.93
2019-02-11T21:19:53.256Z,6.66
2019-02-11T21:30:52.313Z,6.62
2019-02-11T21:41:55.832Z,6.51
2019-02-11T21:52:56.039Z,5.95
2019-02-11T22:03:59.396Z,6.13
2019-02-11T22:14:57.461Z,5.97
2019-02-11T22:25:56.775Z,6.22
2019-02-11T22:37:00.735Z,6.15
2019-02-11T22:47:57.237Z,5.96
2019-02-11T22:58:56.729Z,5.85
2019-02-11T23:09:51.666Z,5.60
2019-02-11T23:20:52.053Z,5.18
2019-02-11T23:31:47.446Z,5.21
2019-02-11T23:42:39.173Z,5.75
2019-02-11T23:53:41.561Z,6.11
